Etusivu
METAR-TAF:

METAR-TAF

Lentoasemat :

Jasper County Airport (Bell Field)

Jasper, Texas, Yhdysvallat

Leveyspiiri: 30-53-08N, Pituuspiiri: 094-02-05W, korkeus merenpinnasta: 65 m

Tämänhetkinen sää

Tämä raportti tehtiin 15 minuuttia sitten, kello 12.35 UTC
tyyntä
Lämpötila 2°C
Kosteus 100%
Ilmanpaine 1029 hPa
Pilvistä 100 ft:n korkeudessa
sumua

METAR: KJAS 151235Z AUTO 00000KT M1/4SM FG OVC001 02/02 A3040 RMK AO2 T00220022

Aika: 06:50 (12:50 UTC)


TAF: puuttuu

Säähavainnot ja -ennusteet yli 4000 lentoasemalta (METAR- ja TAF-raportit).

Käytössä olevat sääasemat on merkitty karttaan keltaisilla ja punaisilla pisteillä.

Aseta hiiri pisteen päälle nähdäksesi sääaseman nimen.

Klikkaa sitten nähdäksesi säähavainnot ja -ennusteet.

Kartan vaihtaminen: klikkaa mustalla rastilla varustettuja vihreitä pisteitä, niin voit zoomata sisään; viivalla varustettua vihreää pistettä, niin voit zoomata ulos tai vihreitä nuolia, niin pääset viereisille kartoille.


METAR-TAF: